Flight Track Log - Related Links

Times and Time Zones

All times are in EDT time to prevent confusion due to time zone crossing. See the BJS542 flight status page for this flight to view local times or setup timezone preferences in your user account.

Time Position Orientation Groundspeed Altitude Reporting Facility
EDT Latitude Longitude Course Direction KTS MPH feet Rate Location/Type
Thu 11:30:45 AM 26.4422 -80.0564 156° South 225 259 3,300  Level Miami Center
Thu 11:31:45 AM 26.4817 -79.9786 60° Northeast 250 288 6,500 1,850 Climbing Miami Center
Thu 11:32:45 AM 26.5100 -79.9142 64° Northeast 284 327 7,000 300 Climbing Miami Center
Thu 11:33:45 AM 26.5514 -79.8272 62° Northeast 306 352 7,100  Climbing Miami Center
Thu 11:34:45 AM 26.5592 -79.7531 83° East 262 302 7,000 -50 Descending Miami Center
Thu 11:35:00 AM 26.4729 -79.6375 149° Southeast  Level FlightAware Approximate
Thu 11:35:45 AM 26.5233 -79.6686 115° Southeast 262 302 7,000  Level Miami Center
Thu 11:36:00 AM 26.3470 -79.5902 156° South  Level FlightAware Approximate
Thu 11:36:45 AM 26.4975 -79.6006 113° Southeast 272 313 7,000  Level Miami Center
Thu 11:37:45 AM 26.4658 -79.5117 112° Southeast 272 313 8,500 1,800 Climbing Miami Center
Thu 11:38:45 AM 26.4253 -79.4342 120° Southeast 300 345 10,600 2,500 Climbing Miami Center
Thu 11:39:45 AM 26.3728 -79.3286 119° Southeast 333 383 13,500 2,750 Climbing Miami Center
Thu 11:40:45 AM 26.3264 -79.2350 119° Southeast 349 402 16,100 2,700 Climbing Miami Center
Thu 11:41:45 AM 26.2778 -79.1367 119° Southeast 356 410 18,900 2,800 Climbing Miami Center
Thu 11:42:45 AM 26.2292 -79.0408 119° Southeast 356 410 21,700 2,650 Climbing Miami Center
Thu 11:43:45 AM 26.1803 -78.9450 120° Southeast 356 410 24,200 1,700 Climbing Miami Center
Thu 11:44:45 AM 26.1211 -78.8375 121° Southeast 373 429 25,100 900 Climbing Miami Center
Thu 11:45:45 AM 26.0581 -78.7139 120° Southeast 416 479 26,000 1,550 Climbing Miami Center
Thu 11:46:45 AM 25.9908 -78.5833 120° Southeast 462 532 28,200 1,850 Climbing Miami Center
Thu 11:47:45 AM 25.9375 -78.4764 119° Southeast 477 549 29,700 1,700 Climbing Miami Center
Thu 11:48:45 AM 25.8639 -78.3414 121° Southeast 477 549 31,600 2,050 Climbing Miami Center
Thu 11:49:45 AM 25.7961 -78.2067 119° Southeast 483 556 33,800 2,350 Climbing Miami Center
Thu 11:50:45 AM 25.7303 -78.0836 121° Southeast 483 556 36,300 1,600 Climbing Miami Center
Thu 11:51:45 AM 25.6625 -77.9539 120° Southeast 483 556 37,000 600 Climbing Miami Center
Thu 11:52:45 AM 25.5903 -77.8150 120° Southeast 498 573 37,500 750 Climbing Miami Center
Thu 11:53:45 AM 25.5181 -77.6739 120° Southeast 516 594 38,500 1,100 Climbing Miami Center
Thu 11:54:45 AM 25.4414 -77.5331 121° Southeast 528 608 39,700 1,250 Climbing Miami Center
Thu 11:55:45 AM 25.3583 -77.3786 121° Southeast 528 608 41,000 650 Climbing Miami Center
Thu 11:56:45 AM 25.2625 -77.2586 131° Southeast 528 608 41,000  Level Miami Center
Thu 11:57:45 AM 25.1647 -77.1297 130° Southeast 534 615 41,000  Level Miami Center
Thu 11:58:45 AM 25.0686 -77.0056 131° Southeast 534 615 41,000  Level Miami Center
Thu 11:59:45 AM 24.9706 -76.8839 132° Southeast 534 615 41,000  Level Miami Center
Thu 12:00:45 PM 24.8744 -76.7603 131° Southeast 534 615 41,000  Level Miami Center
Thu 12:01:45 PM 24.7781 -76.6392 131° Southeast 534 615 41,000  Level Miami Center
Thu 12:02:45 PM 24.6817 -76.5158 131° Southeast 534 615 41,000  Level Miami Center
Thu 12:03:45 PM 24.5853 -76.3972 132° Southeast 534 615 41,000  Level Miami Center
Thu 12:04:45 PM 24.5011 -76.2878 130° Southeast 534 615 41,000  Level Miami Center
Thu 12:05:45 PM 24.4025 -76.1650 131° Southeast 534 615 41,000  Level Miami Center
Thu 12:06:45 PM 24.3058 -76.0425 131° Southeast 534 615 41,000  Level Miami Center
Thu 12:07:45 PM 24.2067 -75.9178 131° Southeast 534 615 41,000  Level Miami Center
Thu 12:08:45 PM 24.1097 -75.7933 130° Southeast 534 615 41,000  Level Miami Center
Thu 12:09:45 PM 24.0086 -75.6669 131° Southeast 534 615 41,000  Level Miami Center
Thu 12:10:45 PM 23.9008 -75.5314 131° Southeast 539 620 41,000  Level Miami Center
Thu 12:11:45 PM 23.7992 -75.4053 131° Southeast 539 620 41,000  Level Miami Center
Thu 12:12:45 PM 23.6956 -75.2772 131° Southeast 545 627 41,000  Level Miami Center
Thu 12:13:45 PM 23.5919 -75.1561 133° Southeast 545 627 41,000  Level Miami Center
Thu 12:14:45 PM 23.4922 -75.0328 131° Southeast 550 633 41,000  Level Miami Center
Thu 12:15:45 PM 23.3903 -74.9075 132° Southeast 550 633 41,000  Level Miami Center
Thu 12:16:45 PM 23.2883 -74.7803 131° Southeast 550 633 41,000 -650 Level Miami Center
Thu 12:17:45 PM 23.1864 -74.6600 133° Southeast 550 633 39,700 -1,300 Descending Miami Center
Thu 12:18:45 PM 23.0883 -74.5397 132° Southeast 545 627 38,400 -1,300 Descending Miami Center
Thu 12:19:45 PM 22.9925 -74.4239 132° Southeast 528 608 37,100 -1,600 Descending Miami Center
Thu 12:20:45 PM 22.9008 -74.3153 132° Southeast 507 583 35,200 -2,000 Descending Miami Center
Thu 12:21:45 PM 22.8092 -74.2067 132° Southeast 488 562 33,100 -2,200 Descending Miami Center
Thu 12:22:45 PM 22.7217 -74.0958 131° Southeast 488 562 30,800 -2,350 Descending Miami Center
Thu 12:23:45 PM 22.6319 -73.9875 132° Southeast 488 562 28,400 -2,350 Descending Miami Center
Thu 12:24:45 PM 22.5422 -73.8839 133° Southeast 483 556 26,100 -2,050 Descending Miami Center
Thu 12:25:45 PM 22.4672 -73.7911 131° Southeast 473 544 24,300 -2,000 Descending Miami Center
Thu 12:26:45 PM 22.3836 -73.6919 132° Southeast 461 531 22,100 -2,200 Descending Miami Center
Thu 12:27:45 PM 22.3003 -73.5953 133° Southeast 456 525 19,900 -2,200 Descending Miami Center
Thu 12:28:45 PM 22.2228 -73.4986 131° Southeast 438 504 17,700 -2,050 Descending Miami Center
Thu 12:29:45 PM 22.1500 -73.4108 132° Southeast 418 481 15,800 -1,900 Descending Miami Center
Thu 12:30:45 PM 22.0792 -73.3275 133° Southeast 392 451 13,900 -1,800 Descending Miami Center
Thu 12:31:45 PM 22.0103 -73.2464 132° Southeast 373 429 12,200 -1,700 Descending Miami Center
Thu 12:32:45 PM 21.9417 -73.1700 134° Southeast 360 414 10,500 -1,700 Descending Miami Center
Thu 12:33:45 PM 21.8836 -73.0933 129° Southeast 349 402 8,800 -1,650 Descending Miami Center
Thu 12:34:45 PM 21.8233 -73.0192 131° Southeast 342 394 7,200 -1,600 Descending Miami Center
Thu 12:36:00 PM 21.8015 -72.8557 96° East  Level FlightAware Approximate
Thu 12:43:00 PM 21.7667 -72.2667 90° East  Level FlightAware Approximate
Thu 12:44:00 PM 21.7736 -72.2659 90° East  Level Estimated
Thu 12:45:00 PM 21.7667 -72.2667 90° East  Level FlightAware Approximate
Thu 12:46:00 PM 21.7736 -72.2659 90° East  Level Estimated
Thu 12:47:00 PM 21.7667 -72.2667 90° East  Level FlightAware Approximate
Thu 12:48:00 PM 21.7736 -72.2659 90° East  Level Estimated
Thu 12:49:00 PM 21.7667 -72.2667 90° East  Level FlightAware Approximate
Thu 12:50:00 PM 21.7736 -72.2659 90° East  Level Estimated
Thu 12:51:00 PM 21.7667 -72.2667 90° East  Level FlightAware Approximate
Thu 12:52:00 PM 21.7736 -72.2659 90° East  Level Estimated
Thu 12:53:00 PM 21.7667 -72.2667 90° East  Level FlightAware Approximate
Thu 12:54:00 PM 21.7736 -72.2659 90° East  Level Estimated
Thu 12:55:00 PM 21.7667 -72.2667 90° East  Level FlightAware Approximate
Thu 12:56:00 PM 21.7736 -72.2659 90° East  Level Estimated

Login

Don't have an account? Register now (free) for customized features, flight alerts, and more!